createdAt,value
2023-01-13T00:00:57.948Z,3.35
2023-01-13T00:03:24.790Z,2.90
2023-01-13T00:05:51.603Z,3.70
2023-01-13T00:08:18.449Z,3.55
2023-01-13T00:10:48.309Z,2.58
2023-01-13T00:13:15.316Z,3.42
2023-01-13T00:15:42.348Z,3.30
2023-01-13T00:18:09.291Z,2.05
2023-01-13T00:20:36.123Z,4.38
2023-01-13T00:23:04.423Z,1.67
2023-01-13T00:25:31.251Z,1.83
2023-01-13T00:27:58.052Z,2.03
2023-01-13T00:30:24.899Z,2.80
2023-01-13T00:32:51.696Z,2.08
2023-01-13T00:35:18.524Z,3.58
2023-01-13T00:37:45.318Z,1.85
2023-01-13T00:40:12.418Z,1.98
2023-01-13T00:42:57.754Z,1.48
2023-01-13T00:45:24.549Z,1.98
2023-01-13T00:47:51.461Z,3.90
2023-01-13T00:50:18.402Z,4.75
2023-01-13T00:52:45.196Z,2.38
2023-01-13T00:55:12.020Z,5.18
2023-01-13T00:57:40.125Z,2.00
2023-01-13T01:00:09.151Z,0.93
2023-01-13T01:02:36.067Z,2.90
2023-01-13T01:05:02.943Z,3.40
2023-01-13T01:07:29.893Z,3.13
2023-01-13T01:09:56.731Z,2.65
2023-01-13T01:12:23.558Z,3.25
2023-01-13T01:14:50.367Z,3.78
2023-01-13T01:17:17.203Z,1.55
2023-01-13T01:19:44.322Z,4.25
2023-01-13T01:22:11.154Z,1.40
2023-01-13T01:24:37.967Z,1.73
2023-01-13T01:27:04.824Z,2.85
2023-01-13T01:29:31.712Z,2.53
2023-01-13T01:31:59.139Z,4.05
2023-01-13T01:34:25.996Z,3.28
2023-01-13T01:36:52.791Z,3.63
2023-01-13T01:39:19.587Z,1.40
2023-01-13T01:42:08.203Z,1.17
2023-01-13T01:44:57.014Z,5.45
2023-01-13T01:47:26.357Z,3.33
2023-01-13T01:49:53.397Z,2.15
2023-01-13T01:52:34.819Z,2.70
2023-01-13T01:55:10.111Z,2.78
2023-01-13T01:57:49.070Z,6.13
2023-01-13T02:00:16.436Z,3.03
2023-01-13T02:02:46.442Z,8.73
2023-01-13T02:05:14.021Z,4.22
2023-01-13T02:07:43.338Z,3.33
2023-01-13T02:10:16.406Z,3.65
2023-01-13T02:12:45.430Z,4.70
2023-01-13T02:15:16.117Z,5.13
2023-01-13T02:17:59.851Z,6.93
2023-01-13T02:20:35.718Z,4.55
2023-01-13T02:23:52.521Z,7.22
2023-01-13T02:26:39.681Z,7.15
2023-01-13T02:29:53.152Z,7.80
2023-01-13T02:32:27.755Z,9.20
2023-01-13T02:35:07.280Z,6.55
2023-01-13T02:37:38.980Z,8.32
2023-01-13T02:40:14.712Z,10.85
2023-01-13T02:43:09.392Z,8.27
2023-01-13T02:46:08.689Z,7.55
2023-01-13T02:48:38.388Z,5.95
2023-01-13T02:51:09.812Z,7.05
2023-01-13T02:53:45.812Z,12.90
2023-01-13T02:58:45.448Z,9.52
2023-01-13T03:01:12.398Z,7.03
2023-01-13T03:03:39.181Z,16.27
2023-01-13T03:06:32.225Z,6.60
2023-01-13T03:09:08.007Z,10.77
2023-01-13T03:11:45.754Z,13.15
2023-01-13T03:14:31.505Z,9.43
2023-01-13T03:17:20.238Z,6.57
2023-01-13T03:20:05.461Z,11.85
2023-01-13T03:22:35.764Z,15.68
2023-01-13T03:25:13.766Z,9.55
2023-01-13T03:27:46.263Z,9.95
2023-01-13T03:30:18.644Z,16.63
2023-01-13T03:32:50.808Z,14.40
2023-01-13T03:35:32.332Z,10.20
2023-01-13T03:38:33.639Z,16.00
2023-01-13T03:41:06.170Z,12.00
2023-01-13T03:44:03.602Z,11.35
2023-01-13T03:46:38.894Z,10.30
2023-01-13T03:49:08.137Z,16.25
2023-01-13T03:51:39.011Z,9.30
2023-01-13T03:54:10.208Z,7.78
2023-01-13T03:56:47.317Z,7.53
2023-01-13T03:59:19.214Z,9.30
2023-01-13T04:02:08.151Z,16.77
2023-01-13T04:04:44.487Z,16.25
2023-01-13T04:07:38.302Z,12.55
2023-01-13T04:10:09.292Z,10.10
2023-01-13T04:13:00.319Z,13.25
2023-01-13T04:15:31.483Z,17.92
2023-01-13T04:18:16.657Z,13.77
2023-01-13T04:20:45.371Z,11.88
2023-01-13T04:23:13.579Z,10.55
2023-01-13T04:25:41.815Z,10.80
2023-01-13T04:28:08.658Z,12.65
2023-01-13T04:30:35.621Z,13.65
2023-01-13T04:33:04.051Z,15.68
2023-01-13T04:35:32.133Z,15.38
2023-01-13T04:38:03.930Z,11.38
2023-01-13T04:40:30.628Z,13.77
2023-01-13T04:42:57.349Z,15.73
2023-01-13T04:45:24.154Z,9.25
2023-01-13T04:47:53.247Z,9.52
2023-01-13T04:50:20.857Z,14.63
2023-01-13T04:52:48.211Z,14.88
2023-01-13T04:55:16.078Z,15.65
2023-01-13T04:57:43.256Z,13.15
2023-01-13T05:00:13.324Z,18.95
2023-01-13T05:02:40.377Z,20.20
2023-01-13T05:05:07.487Z,19.50
2023-01-13T05:07:34.498Z,20.92
2023-01-13T05:10:01.237Z,18.55
2023-01-13T05:12:46.572Z,24.05
2023-01-13T05:15:33.539Z,17.65
2023-01-13T05:18:01.330Z,16.10
2023-01-13T05:20:28.110Z,15.20
2023-01-13T05:23:13.721Z,15.15
2023-01-13T05:25:44.407Z,16.77
2023-01-13T05:28:11.600Z,13.70
2023-01-13T05:30:43.815Z,18.80
2023-01-13T05:33:11.497Z,13.93
2023-01-13T05:35:40.047Z,13.38
2023-01-13T05:38:06.847Z,21.98
2023-01-13T05:40:52.459Z,13.27
2023-01-13T05:43:21.536Z,12.75
2023-01-13T05:45:59.817Z,14.32
2023-01-13T05:48:33.684Z,13.93
2023-01-13T05:51:02.113Z,17.38
2023-01-13T05:53:29.292Z,23.65
2023-01-13T05:55:56.195Z,11.32
2023-01-13T05:58:25.475Z,17.38
2023-01-13T06:00:52.838Z,16.63
2023-01-13T06:03:20.241Z,19.70
2023-01-13T06:05:47.970Z,24.88
2023-01-13T06:08:15.141Z,14.90
2023-01-13T06:10:41.939Z,13.57
2023-01-13T06:13:08.613Z,16.98
2023-01-13T06:15:35.399Z,18.52
2023-01-13T06:18:04.474Z,15.25
2023-01-13T06:20:31.793Z,14.48
2023-01-13T06:22:59.004Z,20.92
2023-01-13T06:25:52.175Z,13.32
2023-01-13T06:28:18.868Z,17.80
2023-01-13T06:30:49.137Z,20.25
2023-01-13T06:33:20.551Z,18.80
2023-01-13T06:35:53.939Z,17.67
2023-01-13T06:38:23.613Z,17.20
2023-01-13T06:40:50.316Z,24.17
2023-01-13T06:43:17.779Z,14.40
2023-01-13T06:45:49.361Z,21.55
2023-01-13T06:48:17.465Z,11.57
2023-01-13T06:50:44.786Z,17.15
2023-01-13T06:53:12.199Z,18.40
2023-01-13T06:55:38.899Z,13.70
2023-01-13T06:58:05.709Z,14.90
2023-01-13T07:00:33.915Z,16.08
2023-01-13T07:03:12.404Z,22.13
2023-01-13T07:05:40.480Z,16.27
2023-01-13T07:08:08.119Z,22.38
2023-01-13T07:10:35.934Z,17.10
2023-01-13T07:13:22.816Z,17.40
2023-01-13T07:16:16.017Z,13.70
2023-01-13T07:18:44.474Z,14.55
2023-01-13T07:21:13.254Z,15.07
2023-01-13T07:23:41.676Z,18.25
2023-01-13T07:26:10.072Z,18.08
2023-01-13T07:28:37.760Z,19.27
2023-01-13T07:31:05.244Z,22.58
2023-01-13T07:33:33.188Z,15.98
2023-01-13T07:36:03.419Z,16.55
2023-01-13T07:38:30.659Z,19.27
2023-01-13T07:40:57.601Z,16.63
2023-01-13T07:43:33.527Z,17.02
2023-01-13T07:48:29.362Z,12.60
2023-01-13T07:50:56.124Z,14.35
2023-01-13T07:53:25.056Z,21.60
2023-01-13T07:55:55.632Z,18.45
2023-01-13T07:58:22.375Z,19.08
2023-01-13T08:00:49.123Z,11.38
2023-01-13T08:03:15.922Z,14.15
2023-01-13T08:05:42.613Z,22.33
2023-01-13T08:08:09.380Z,16.80
2023-01-13T08:10:37.499Z,18.40
2023-01-13T08:13:22.324Z,10.75
2023-01-13T08:15:51.192Z,25.05
2023-01-13T08:18:22.019Z,18.63
2023-01-13T08:20:49.792Z,17.77
2023-01-13T08:23:16.701Z,17.10
2023-01-13T08:25:43.937Z,21.80
2023-01-13T08:28:10.907Z,17.13
2023-01-13T08:30:37.707Z,14.23
2023-01-13T08:33:07.785Z,26.95
2023-01-13T08:35:40.828Z,15.52
2023-01-13T08:38:08.931Z,21.75
2023-01-13T08:40:36.291Z,15.98
2023-01-13T08:43:03.190Z,17.02
2023-01-13T08:45:30.123Z,19.98
2023-01-13T08:47:56.873Z,19.45
2023-01-13T08:50:23.670Z,14.40
2023-01-13T08:52:50.458Z,16.75
2023-01-13T08:55:17.243Z,17.95
2023-01-13T08:57:44.143Z,16.13
2023-01-13T09:00:13.307Z,15.23
2023-01-13T09:02:40.168Z,15.60
2023-01-13T09:05:08.297Z,15.90
2023-01-13T09:07:36.876Z,14.13
2023-01-13T09:10:05.157Z,16.13
2023-01-13T09:12:50.567Z,8.05
2023-01-13T09:15:20.267Z,14.98
2023-01-13T09:17:47.849Z,14.10
2023-01-13T09:20:15.273Z,13.52
2023-01-13T09:22:42.053Z,13.07
2023-01-13T09:25:09.262Z,16.02
2023-01-13T09:27:36.141Z,12.90
2023-01-13T09:30:03.352Z,11.73
2023-01-13T09:32:30.031Z,14.98
2023-01-13T09:35:02.811Z,12.05
2023-01-13T09:37:35.376Z,11.15
2023-01-13T09:40:08.141Z,13.35
2023-01-13T09:43:09.829Z,9.02
2023-01-13T09:46:04.350Z,12.93
2023-01-13T09:51:30.304Z,6.20
2023-01-13T09:54:02.920Z,9.85
2023-01-13T09:56:29.965Z,15.77
2023-01-13T09:58:57.650Z,8.30
2023-01-13T10:01:29.405Z,7.85
2023-01-13T10:03:56.206Z,7.43
2023-01-13T10:06:33.295Z,15.32
2023-01-13T10:09:00.171Z,7.60
2023-01-13T10:11:51.962Z,14.52
2023-01-13T10:14:39.761Z,11.00
2023-01-13T10:17:12.269Z,14.00
2023-01-13T10:19:49.149Z,5.30
2023-01-13T10:22:22.730Z,12.32
2023-01-13T10:25:23.805Z,7.53
2023-01-13T10:27:52.700Z,10.13
2023-01-13T10:30:34.639Z,12.57
2023-01-13T10:33:12.942Z,14.02
2023-01-13T10:36:02.787Z,8.63
2023-01-13T10:38:35.183Z,9.30
2023-01-13T10:41:18.048Z,14.55
2023-01-13T10:43:45.486Z,13.50
2023-01-13T10:46:18.033Z,8.65
2023-01-13T10:48:57.917Z,10.98
2023-01-13T10:51:25.968Z,4.78
2023-01-13T10:54:13.037Z,8.18
2023-01-13T10:56:42.139Z,9.88
2023-01-13T10:59:14.144Z,11.68
2023-01-13T11:01:43.459Z,12.65
2023-01-13T11:04:44.142Z,10.10
2023-01-13T11:10:19.009Z,11.45
2023-01-13T11:13:13.910Z,14.55
2023-01-13T11:15:54.813Z,8.77
2023-01-13T11:18:43.535Z,12.98
2023-01-13T11:21:27.812Z,11.05
2023-01-13T11:24:25.020Z,10.45
2023-01-13T11:26:59.238Z,12.38
2023-01-13T11:29:45.053Z,15.55
2023-01-13T11:32:17.695Z,15.52
2023-01-13T11:34:49.201Z,10.48
2023-01-13T11:37:27.458Z,9.18
2023-01-13T11:40:09.337Z,10.00
2023-01-13T11:42:46.662Z,9.45
2023-01-13T11:45:30.178Z,14.93
2023-01-13T11:48:00.179Z,11.07
2023-01-13T11:50:34.955Z,10.45
2023-01-13T11:53:39.029Z,8.30
2023-01-13T11:56:24.283Z,12.85
2023-01-13T11:59:02.961Z,7.55
2023-01-13T12:01:38.021Z,7.10
2023-01-13T12:04:22.982Z,9.38
2023-01-13T12:07:02.694Z,7.20
2023-01-13T12:09:47.273Z,12.05
2023-01-13T12:12:39.105Z,15.40
2023-01-13T12:15:21.679Z,12.93
2023-01-13T12:18:00.661Z,6.50
2023-01-13T12:20:39.304Z,12.68
2023-01-13T12:23:17.985Z,14.30
2023-01-13T12:25:49.442Z,13.27
2023-01-13T12:28:23.944Z,11.40
2023-01-13T12:30:57.431Z,12.15
2023-01-13T12:33:58.894Z,11.90
2023-01-13T12:36:48.337Z,15.85
2023-01-13T12:39:40.588Z,15.38
2023-01-13T12:42:36.489Z,13.23
2023-01-13T12:45:12.165Z,17.52
2023-01-13T12:47:43.927Z,10.35
2023-01-13T12:50:22.615Z,15.38
2023-01-13T12:52:59.963Z,15.07
2023-01-13T12:55:33.216Z,8.52
2023-01-13T12:58:15.840Z,12.40
2023-01-13T13:00:44.668Z,8.40
2023-01-13T13:03:12.081Z,8.43
2023-01-13T13:06:02.031Z,14.55
2023-01-13T13:08:42.605Z,6.47
2023-01-13T13:11:34.128Z,8.73
2023-01-13T13:14:12.133Z,7.45
2023-01-13T13:16:49.194Z,17.02
2023-01-13T13:19:18.883Z,11.05
2023-01-13T13:22:13.932Z,9.00
2023-01-13T13:24:43.043Z,10.90
2023-01-13T13:27:32.073Z,10.00
2023-01-13T13:30:03.092Z,8.38
2023-01-13T13:33:00.037Z,10.02
2023-01-13T13:35:51.741Z,7.40
2023-01-13T13:39:37.585Z,6.82
2023-01-13T13:42:54.233Z,11.63
2023-01-13T13:45:45.509Z,6.53
2023-01-13T13:48:30.694Z,15.30
2023-01-13T13:51:04.561Z,5.72
2023-01-13T13:53:35.576Z,11.57
2023-01-13T13:56:07.358Z,13.30
2023-01-13T13:58:36.942Z,11.93
2023-01-13T14:01:05.016Z,7.55
2023-01-13T14:03:34.820Z,9.90
2023-01-13T14:06:04.310Z,7.93
2023-01-13T14:08:38.936Z,9.73
2023-01-13T14:11:36.000Z,7.28
2023-01-13T14:14:04.782Z,5.65
2023-01-13T14:16:35.033Z,8.23
2023-01-13T14:19:02.969Z,13.23
2023-01-13T14:21:30.609Z,12.98
2023-01-13T14:24:14.739Z,9.73
2023-01-13T14:26:41.800Z,5.68
2023-01-13T14:29:15.303Z,3.67
2023-01-13T14:31:42.191Z,4.00
2023-01-13T14:34:31.355Z,8.43
2023-01-13T14:36:59.860Z,6.93
2023-01-13T14:39:38.100Z,13.75
2023-01-13T14:42:12.101Z,8.38
2023-01-13T14:44:45.867Z,5.90
2023-01-13T14:47:23.500Z,9.48
2023-01-13T14:49:58.790Z,11.38
2023-01-13T14:52:28.029Z,10.98
2023-01-13T14:55:17.633Z,11.35
2023-01-13T14:57:44.458Z,7.72
2023-01-13T15:00:14.931Z,12.00
2023-01-13T15:02:56.990Z,10.07
2023-01-13T15:05:31.629Z,6.85
2023-01-13T15:08:04.550Z,9.15
2023-01-13T15:10:54.759Z,12.23
2023-01-13T15:13:26.613Z,9.45
2023-01-13T15:15:56.746Z,5.40
2023-01-13T15:18:23.639Z,11.00
2023-01-13T15:20:51.028Z,4.35
2023-01-13T15:23:18.863Z,10.10
2023-01-13T15:25:47.201Z,12.13
2023-01-13T15:28:25.721Z,10.68
2023-01-13T15:30:54.335Z,13.07
2023-01-13T15:33:22.659Z,7.88
2023-01-13T15:35:51.772Z,9.90
2023-01-13T15:38:21.199Z,9.20
2023-01-13T15:40:52.617Z,8.15
2023-01-13T15:43:45.936Z,11.20
2023-01-13T15:46:34.125Z,6.70
2023-01-13T15:49:03.657Z,10.98
2023-01-13T15:51:30.395Z,6.05
2023-01-13T15:54:00.492Z,7.90
2023-01-13T15:56:27.258Z,7.05
2023-01-13T15:58:54.656Z,7.80
2023-01-13T16:01:21.933Z,5.90
2023-01-13T16:03:48.828Z,9.70
2023-01-13T16:06:21.136Z,9.88
2023-01-13T16:08:47.832Z,6.93
2023-01-13T16:11:14.587Z,1.92
2023-01-13T16:13:41.332Z,10.15
2023-01-13T16:16:20.518Z,12.88
2023-01-13T16:18:47.673Z,8.63
2023-01-13T16:21:14.876Z,6.53
2023-01-13T16:23:42.129Z,6.57
2023-01-13T16:26:17.915Z,4.93
2023-01-13T16:28:44.852Z,15.98
2023-01-13T16:31:32.795Z,9.85
2023-01-13T16:34:02.576Z,6.00
2023-01-13T16:36:31.761Z,7.25
2023-01-13T16:38:58.651Z,6.80
2023-01-13T16:41:25.568Z,5.80
2023-01-13T16:43:52.605Z,5.95
2023-01-13T16:46:25.430Z,6.10
2023-01-13T16:48:54.273Z,4.85
2023-01-13T16:51:22.098Z,11.43
2023-01-13T16:53:49.718Z,6.63
2023-01-13T16:56:27.023Z,3.08
2023-01-13T16:58:56.512Z,8.68
2023-01-13T17:01:26.988Z,6.47
2023-01-13T17:03:54.845Z,9.27
2023-01-13T17:06:37.142Z,7.00
2023-01-13T17:09:14.453Z,9.50
2023-01-13T17:11:41.145Z,6.80
2023-01-13T17:14:19.223Z,3.30
2023-01-13T17:16:47.348Z,6.15
2023-01-13T17:19:14.113Z,6.45
2023-01-13T17:21:41.094Z,7.88
2023-01-13T17:24:09.542Z,3.13
2023-01-13T17:26:43.872Z,3.90
2023-01-13T17:29:16.605Z,2.15
2023-01-13T17:31:43.663Z,4.35
2023-01-13T17:34:11.973Z,5.43
2023-01-13T17:36:39.406Z,2.90
2023-01-13T17:39:06.916Z,3.28
2023-01-13T17:41:33.670Z,2.47
2023-01-13T17:44:00.399Z,2.28
2023-01-13T17:46:27.494Z,1.95
2023-01-13T17:48:56.087Z,2.92
2023-01-13T17:51:25.132Z,1.70
2023-01-13T17:53:53.197Z,1.88
2023-01-13T17:56:19.929Z,4.22
2023-01-13T17:58:46.774Z,1.67
2023-01-13T18:01:17.077Z,1.02
2023-01-13T18:03:44.252Z,4.70
2023-01-13T18:06:19.876Z,2.25
2023-01-13T18:08:47.414Z,4.75
2023-01-13T18:11:18.695Z,0.95
2023-01-13T18:13:46.802Z,3.38
2023-01-13T18:16:16.099Z,2.15
2023-01-13T18:18:44.944Z,4.97
2023-01-13T18:21:39.863Z,2.05
2023-01-13T18:24:38.245Z,3.65
2023-01-13T18:27:23.839Z,4.00
2023-01-13T18:29:52.912Z,1.88
2023-01-13T18:32:21.861Z,3.50
2023-01-13T18:35:10.445Z,4.35
2023-01-13T18:37:39.945Z,3.22
2023-01-13T18:40:10.012Z,3.30
2023-01-13T18:42:53.526Z,1.92
2023-01-13T18:45:29.034Z,5.80
2023-01-13T18:47:57.925Z,2.67
2023-01-13T18:50:26.389Z,5.10
2023-01-13T18:52:53.101Z,8.68
2023-01-13T18:55:20.147Z,6.28
2023-01-13T18:57:46.933Z,4.97
2023-01-13T19:00:17.661Z,2.00
2023-01-13T19:02:45.342Z,1.20
2023-01-13T19:05:13.018Z,2.90
2023-01-13T19:07:39.809Z,2.40
2023-01-13T19:10:09.632Z,2.45
2023-01-13T19:15:03.452Z,3.65
2023-01-13T19:17:33.330Z,3.70
2023-01-13T19:20:00.364Z,6.43
2023-01-13T19:22:30.811Z,3.97
2023-01-13T19:24:58.553Z,1.65
2023-01-13T19:27:27.427Z,5.28
2023-01-13T19:29:57.437Z,2.92
2023-01-13T19:32:25.588Z,4.10
2023-01-13T19:34:54.911Z,7.32
2023-01-13T19:37:21.872Z,3.92
2023-01-13T19:39:48.569Z,5.75
2023-01-13T19:42:33.898Z,2.97
2023-01-13T19:45:19.291Z,3.22
2023-01-13T19:47:46.047Z,2.25
2023-01-13T19:50:13.950Z,4.97
2023-01-13T19:52:42.243Z,4.45
2023-01-13T19:55:10.817Z,2.90
2023-01-13T19:57:39.508Z,2.95
2023-01-13T20:00:08.801Z,2.72
2023-01-13T20:02:36.879Z,2.92
2023-01-13T20:05:06.402Z,3.83
2023-01-13T20:07:33.830Z,2.05
2023-01-13T20:10:01.562Z,1.58
2023-01-13T20:12:29.112Z,2.65
2023-01-13T20:14:56.109Z,2.92
2023-01-13T20:17:23.243Z,1.58
2023-01-13T20:19:50.382Z,2.13
2023-01-13T20:22:17.109Z,1.40
2023-01-13T20:24:43.776Z,3.50
2023-01-13T20:27:10.645Z,1.42
2023-01-13T20:29:37.754Z,3.38
2023-01-13T20:32:05.111Z,3.20
2023-01-13T20:34:31.888Z,4.25
2023-01-13T20:36:58.641Z,1.35
2023-01-13T20:39:26.621Z,0.68
2023-01-13T20:42:12.709Z,2.17
2023-01-13T20:44:39.799Z,1.02
2023-01-13T20:47:07.149Z,2.03
2023-01-13T20:49:36.084Z,1.33
2023-01-13T20:52:09.098Z,2.70
2023-01-13T20:54:37.539Z,1.25
2023-01-13T20:57:05.657Z,0.65
2023-01-13T20:59:32.387Z,4.38
2023-01-13T21:01:59.490Z,1.58
2023-01-13T21:04:26.342Z,0.93
2023-01-13T21:06:53.109Z,1.15
2023-01-13T21:09:19.867Z,2.63
2023-01-13T21:12:05.193Z,1.73
2023-01-13T21:14:50.624Z,3.17
2023-01-13T21:17:35.732Z,4.10
2023-01-13T21:20:04.471Z,3.10
2023-01-13T21:22:31.470Z,6.03
2023-01-13T21:24:58.471Z,2.65
2023-01-13T21:27:25.966Z,6.82
2023-01-13T21:29:52.671Z,2.33
2023-01-13T21:32:19.370Z,4.55
2023-01-13T21:34:46.478Z,2.70
2023-01-13T21:37:14.795Z,6.63
2023-01-13T21:39:42.595Z,5.57
2023-01-13T21:42:32.414Z,4.40
2023-01-13T21:45:17.798Z,2.22
2023-01-13T21:47:50.365Z,2.80
2023-01-13T21:50:19.974Z,5.00
2023-01-13T21:52:48.679Z,6.78
2023-01-13T21:55:26.930Z,6.72
2023-01-13T21:57:55.075Z,5.47
2023-01-13T22:00:24.224Z,3.42
2023-01-13T22:02:51.471Z,2.20
2023-01-13T22:05:20.173Z,3.63
2023-01-13T22:07:47.502Z,3.88
2023-01-13T22:10:17.659Z,4.22
2023-01-13T22:12:44.852Z,3.40
2023-01-13T22:15:12.949Z,7.10
2023-01-13T22:17:41.005Z,7.78
2023-01-13T22:20:12.820Z,2.63
2023-01-13T22:22:39.524Z,3.03
2023-01-13T22:25:08.917Z,3.75
2023-01-13T22:27:42.225Z,3.95
2023-01-13T22:30:14.070Z,5.57
2023-01-13T22:32:40.894Z,3.15
2023-01-13T22:35:09.707Z,1.30
2023-01-13T22:37:37.229Z,2.30
2023-01-13T22:40:05.531Z,2.10
2023-01-13T22:42:32.494Z,1.70
2023-01-13T22:44:59.267Z,7.22
2023-01-13T22:47:26.072Z,6.47
2023-01-13T22:49:52.817Z,5.68
2023-01-13T22:52:19.600Z,2.95
2023-01-13T22:54:46.368Z,6.60
2023-01-13T22:57:13.102Z,2.88
2023-01-13T22:59:39.759Z,4.15
2023-01-13T23:02:06.464Z,8.23
2023-01-13T23:04:33.396Z,2.80
2023-01-13T23:07:00.199Z,7.50
2023-01-13T23:09:29.904Z,6.60
2023-01-13T23:11:58.170Z,8.45
2023-01-13T23:14:25.496Z,8.65
2023-01-13T23:16:52.587Z,6.13
2023-01-13T23:19:19.517Z,9.32
2023-01-13T23:21:47.014Z,9.93
2023-01-13T23:24:13.828Z,4.57
2023-01-13T23:26:41.093Z,7.25
2023-01-13T23:29:10.914Z,5.88
2023-01-13T23:31:40.634Z,9.20
2023-01-13T23:34:07.933Z,8.00
2023-01-13T23:36:37.073Z,10.95
2023-01-13T23:39:04.111Z,9.45
2023-01-13T23:41:30.928Z,5.30
2023-01-13T23:44:00.006Z,12.43
2023-01-13T23:46:29.148Z,9.65
2023-01-13T23:48:55.905Z,7.10
2023-01-13T23:51:23.262Z,3.03
2023-01-13T23:53:50.798Z,5.63
2023-01-13T23:56:23.073Z,9.40
2023-01-13T23:58:50.850Z,9.40
